Time;durP1;ratioP1;P1;durP2;ratioP2;P2;SDS_P1;SDS_P2;PMS_P1;PMS_P2;Temp;Humidity;BMP_temperature;BMP_pressure;BME280_temperature;BME280_humidity;BME280_pressure;Samples;Min_cycle;Max_cycle;Signal;HPM_P1;HPM_P2
2023/11/19 00:01:51;;;;;;;0.10;0.10;;;;;;;12.91;79.74;99340.03;7359986;19;20007;-63
2023/11/19 00:04:17;;;;;;;0.10;0.10;;;;;;;12.93;79.78;99329.50;7359690;19;20015;-63
2023/11/19 00:06:42;;;;;;;0.10;0.10;;;;;;;12.90;79.66;99329.66;7364908;19;20624;-63
2023/11/19 00:09:08;;;;;;;0.10;0.10;;;;;;;12.86;79.73;99308.00;7358239;19;20455;-63
2023/11/19 00:11:33;;;;;;;0.10;0.10;;;;;;;12.89;79.72;99315.69;7352505;19;20017;-64
2023/11/19 00:13:58;;;;;;;0.10;0.10;;;;;;;12.92;79.75;99312.91;7352542;19;20025;-63
2023/11/19 00:16:24;;;;;;;0.10;0.10;;;;;;;12.90;79.39;99313.94;7356689;19;20036;-63
2023/11/19 00:18:49;;;;;;;0.00;0.00;;;;;;;12.91;79.36;99315.59;7358855;19;20363;-63
2023/11/19 00:21:15;;;;;;;0.10;0.10;;;;;;;12.91;79.26;99302.50;7360138;19;20046;-63
2023/11/19 00:23:40;;;;;;;0.00;0.00;;;;;;;12.88;79.21;99294.84;7361041;19;20014;-63
2023/11/19 00:26:06;;;;;;;0.10;0.10;;;;;;;12.87;79.34;99301.81;7365669;19;20011;-63
2023/11/19 00:28:33;;;;;;;0.10;0.10;;;;;;;12.84;79.29;99304.63;7362248;19;20246;-62
2023/11/19 00:30:58;;;;;;;0.10;0.10;;;;;;;12.82;79.12;99311.72;7367834;19;20020;-61
2023/11/19 00:33:24;;;;;;;0.10;0.10;;;;;;;12.67;79.09;99297.69;7365620;19;20014;-63
2023/11/19 00:35:50;;;;;;;0.08;0.08;;;;;;;12.76;79.32;99311.19;7367074;19;20010;-63
2023/11/19 00:38:15;;;;;;;0.10;0.10;;;;;;;12.75;79.36;99315.59;7371181;19;20014;-63
2023/11/19 00:40:41;;;;;;;0.05;0.05;;;;;;;12.59;79.53;99288.53;7346147;19;20018;-63
2023/11/19 00:43:07;;;;;;;0.10;0.10;;;;;;;12.76;79.68;99305.97;7360983;19;20430;-62
2023/11/19 00:45:32;;;;;;;0.10;0.10;;;;;;;12.77;79.49;99308.50;7350654;19;20010;-63
2023/11/19 00:47:59;;;;;;;0.00;0.00;;;;;;;12.72;79.71;99295.66;7368247;19;20005;-63
2023/11/19 00:50:25;;;;;;;0.10;0.10;;;;;;;12.73;79.97;99302.59;7364458;19;20229;-63
2023/11/19 00:52:51;;;;;;;0.10;0.10;;;;;;;12.67;79.71;99300.31;7367205;19;20509;-63
2023/11/19 00:55:17;;;;;;;0.10;0.10;;;;;;;12.75;79.94;99322.63;7364598;19;20009;-63
2023/11/19 00:57:42;;;;;;;0.10;0.10;;;;;;;12.54;79.92;99269.63;7367173;19;20090;-63
2023/11/19 01:00:18;;;;;;;0.10;0.10;;;;;;;12.80;80.06;99328.44;7366314;19;20034;-63
2023/11/19 01:02:44;;;;;;;0.10;0.10;;;;;;;12.81;79.70;99324.91;7361710;19;20838;-62
2023/11/19 01:05:09;;;;;;;0.10;0.10;;;;;;;12.69;79.79;99294.97;7358240;19;19999;-63
2023/11/19 01:07:35;;;;;;;0.10;0.10;;;;;;;12.81;80.13;99322.28;7360105;19;20042;-62
2023/11/19 01:10:00;;;;;;;0.08;0.08;;;;;;;12.83;80.03;99302.09;7361153;19;20006;-63
2023/11/19 01:12:26;;;;;;;0.10;0.10;;;;;;;12.82;79.57;99300.38;7359753;19;20085;-63
2023/11/19 01:14:51;;;;;;;0.10;0.10;;;;;;;12.83;79.82;99302.09;7357223;19;20053;-63
2023/11/19 01:17:16;;;;;;;0.05;0.05;;;;;;;12.84;79.98;99309.03;7363166;19;20014;-63
2023/11/19 01:19:42;;;;;;;0.10;0.10;;;;;;;12.83;79.42;99296.88;7361671;19;20009;-63
2023/11/19 01:22:07;;;;;;;0.10;0.10;;;;;;;12.82;79.76;99289.91;7358307;19;20006;-63
2023/11/19 01:24:33;;;;;;;0.10;0.10;;;;;;;12.81;79.64;99282.97;7365899;19;20017;-63
2023/11/19 01:26:59;;;;;;;0.10;0.10;;;;;;;12.80;79.38;99281.28;7358920;19;20051;-63
2023/11/19 01:29:25;;;;;;;0.00;0.00;;;;;;;12.76;79.14;99279.78;7357308;19;20074;-62
2023/11/19 01:31:53;;;;;;;0.10;0.10;;;;;;;12.76;79.45;99274.53;7369097;19;20002;-63
2023/11/19 01:34:18;;;;;;;0.10;0.10;;;;;;;12.70;79.47;99263.47;7363636;19;20007;-63
2023/11/19 01:36:46;;;;;;;0.10;0.10;;;;;;;12.71;79.44;99273.00;7364811;19;20011;-62
2023/11/19 01:39:11;;;;;;;0.10;0.10;;;;;;;12.73;79.57;99267.69;7358689;19;20038;-63
2023/11/19 01:41:38;;;;;;;0.10;0.10;;;;;;;12.73;79.62;99258.06;7362010;19;20014;-62
2023/11/19 01:44:06;;;;;;;0.10;0.10;;;;;;;12.76;79.37;99264.06;7352541;19;20014;-63
2023/11/19 01:46:34;;;;;;;0.00;0.00;;;;;;;12.61;79.80;99234.31;7362322;19;20015;-62
2023/11/19 01:49:00;;;;;;;0.10;0.10;;;;;;;12.75;79.55;99251.88;7358668;19;20018;-62
2023/11/19 01:51:27;;;;;;;0.10;0.10;;;;;;;12.81;79.71;99264.66;7361864;19;20593;-63
2023/11/19 01:53:52;;;;;;;0.10;0.10;;;;;;;12.66;79.48;99227.88;7356833;19;20040;-63
2023/11/19 01:56:19;;;;;;;0.10;0.10;;;;;;;12.82;79.52;99258.47;7364255;19;20018;-63
2023/11/19 01:58:45;;;;;;;0.10;0.10;;;;;;;12.84;79.53;99256.63;7358493;19;20038;-63
2023/11/19 02:01:12;;;;;;;0.10;0.10;;;;;;;12.75;79.85;99223.06;7356983;19;20007;-62
2023/11/19 02:03:37;;;;;;;0.10;0.10;;;;;;;12.87;79.20;99243.34;7348825;19;20006;-63
2023/11/19 02:06:04;;;;;;;0.10;0.10;;;;;;;12.87;79.36;99245.97;7363301;19;20569;-63
2023/11/19 02:08:30;;;;;;;0.10;0.10;;;;;;;12.89;79.17;99233.66;7361276;19;20060;-63
2023/11/19 02:10:57;;;;;;;0.10;0.10;;;;;;;12.71;79.05;99204.91;7360500;19;20558;-63
2023/11/19 02:13:24;;;;;;;0.10;0.10;;;;;;;12.91;78.93;99226.53;7363067;19;20404;-63
2023/11/19 02:15:50;;;;;;;0.10;0.10;;;;;;;12.90;79.03;99230.09;7359099;19;20510;-62
2023/11/19 02:18:27;;;;;;;0.10;0.10;;;;;;;12.91;79.14;99231.78;7361405;19;20056;-63
2023/11/19 02:20:54;;;;;;;0.10;0.10;;;;;;;12.89;79.26;99229.25;7355853;19;20091;-61
2023/11/19 02:23:20;;;;;;;0.10;0.10;;;;;;;12.90;78.94;99235.31;7369850;19;20078;-63
2023/11/19 02:26:10;;;;;;;0.00;0.00;;;;;;;12.54;78.75;99173.56;7346977;19;20091;-62
2023/11/19 02:28:38;;;;;;;0.10;0.10;;;;;;;12.90;78.89;99230.09;7360012;19;20031;-63
2023/11/19 02:31:09;;;;;;;0.10;0.10;;;;;;;12.88;78.83;99247.69;7368008;19;20601;-63
2023/11/19 02:33:38;;;;;;;0.10;0.10;;;;;;;12.74;78.48;99219.63;7364867;19;20028;-63
2023/11/19 02:36:05;;;;;;;0.10;0.10;;;;;;;12.87;78.62;99236.31;7366561;19;20022;-63
2023/11/19 02:38:30;;;;;;;0.10;0.10;;;;;;;12.87;79.03;99230.25;7365260;19;20018;-63
2023/11/19 02:40:56;;;;;;;0.10;0.10;;;;;;;12.90;79.05;99230.09;7370293;19;20409;-63
2023/11/19 02:43:22;;;;;;;0.10;0.10;;;;;;;12.85;78.92;99221.63;7357433;19;20599;-63
2023/11/19 02:45:48;;;;;;;0.10;0.10;;;;;;;12.90;78.94;99219.59;7366757;19;20014;-63
2023/11/19 02:48:15;;;;;;;0.10;0.10;;;;;;;12.91;78.75;99221.28;7370948;19;20030;-62
2023/11/19 02:50:41;;;;;;;0.10;0.10;;;;;;;12.89;78.96;99210.91;7372265;19;20125;-63
2023/11/19 02:53:07;;;;;;;0.10;0.10;;;;;;;12.93;78.74;99214.22;7367725;19;20422;-63
2023/11/19 02:55:37;;;;;;;0.08;0.08;;;;;;;12.88;78.71;99195.28;7363109;19;20314;-63
2023/11/19 02:58:09;;;;;;;0.10;0.10;;;;;;;12.96;78.86;99198.28;7359501;19;20030;-63
2023/11/19 03:00:42;;;;;;;0.10;0.10;;;;;;;12.97;78.45;99194.75;7359930;19;20010;-63
2023/11/19 03:03:20;;;;;;;0.10;0.10;;;;;;;13.00;78.65;99205.06;7364012;19;20015;-63
2023/11/19 03:05:49;;;;;;;0.08;0.08;;;;;;;13.02;78.88;99203.19;7364080;19;20478;-61
2023/11/19 03:08:15;;;;;;;0.05;0.05;;;;;;;13.04;78.86;99206.56;7364490;19;20082;-63
2023/11/19 03:10:41;;;;;;;0.10;0.10;;;;;;;12.98;78.39;99196.44;7363578;19;20358;-63
2023/11/19 03:13:12;;;;;;;0.10;0.10;;;;;;;13.07;77.99;99201.16;7359645;19;20010;-63
2023/11/19 03:15:38;;;;;;;0.10;0.10;;;;;;;13.05;77.80;99208.25;7364195;19;20490;-63
2023/11/19 03:18:03;;;;;;;0.10;0.10;;;;;;;13.08;78.29;99200.25;7364633;19;20031;-63
2023/11/19 03:20:30;;;;;;;0.10;0.10;;;;;;;13.10;78.00;99215.88;7361743;19;20011;-63
2023/11/19 03:22:55;;;;;;;0.10;0.10;;;;;;;12.95;78.47;99170.41;7364965;19;20007;-63
2023/11/19 03:25:20;;;;;;;0.10;0.10;;;;;;;13.12;78.55;99204.34;7362999;19;20466;-62
2023/11/19 03:27:46;;;;;;;0.10;0.10;;;;;;;13.16;78.52;99195.38;7362889;19;20007;-62
2023/11/19 03:30:11;;;;;;;0.10;0.10;;;;;;;13.15;77.68;99193.69;7360257;19;20011;-63
2023/11/19 03:32:38;;;;;;;0.10;0.10;;;;;;;13.20;78.49;99170.69;7362425;19;20018;-63
2023/11/19 03:35:07;;;;;;;0.10;0.10;;;;;;;13.17;78.10;99189.19;7364245;19;20745;-63
2023/11/19 03:37:32;;;;;;;0.10;0.10;;;;;;;13.21;77.42;99190.75;7348822;19;20097;-63
2023/11/19 03:39:59;;;;;;;0.10;0.10;;;;;;;13.21;78.03;99187.25;7351654;19;20477;-63
2023/11/19 03:42:26;;;;;;;0.10;0.10;;;;;;;12.98;77.65;99133.56;7354412;19;20070;-62
2023/11/19 03:44:52;;;;;;;0.10;0.10;;;;;;;13.08;77.26;99160.94;7361677;19;20010;-62
2023/11/19 03:47:18;;;;;;;0.10;0.10;;;;;;;13.18;77.77;99177.81;7360985;19;20007;-63
2023/11/19 03:49:48;;;;;;;0.10;0.10;;;;;;;13.06;77.86;99152.28;7363056;19;20046;-62
2023/11/19 03:52:14;;;;;;;0.10;0.10;;;;;;;13.16;77.87;99173.56;7358581;19;20082;-63
2023/11/19 03:54:39;;;;;;;0.10;0.10;;;;;;;13.16;77.83;99171.78;7361600;19;20109;-63
2023/11/19 03:57:05;;;;;;;0.10;0.10;;;;;;;13.15;77.70;99162.25;7371268;19;20007;-63
2023/11/19 03:59:30;;;;;;;0.10;0.10;;;;;;;13.01;77.69;99143.84;7370164;19;20034;-63
2023/11/19 04:01:56;;;;;;;0.10;0.10;;;;;;;13.10;77.90;99166.06;7371000;19;20046;-63
2023/11/19 04:04:22;;;;;;;0.10;0.10;;;;;;;13.02;77.81;99140.28;7365007;19;20189;-63
2023/11/19 04:06:48;;;;;;;0.10;0.10;;;;;;;13.18;77.63;99171.72;7367371;19;20110;-62
2023/11/19 04:09:13;;;;;;;0.10;0.10;;;;;;;13.16;77.85;99158.69;7371044;19;20010;-63
2023/11/19 04:11:39;;;;;;;0.10;0.10;;;;;;;13.17;77.49;99154.28;7367910;19;20031;-63
2023/11/19 04:14:05;;;;;;;0.10;0.10;;;;;;;13.01;77.69;99128.13;7370752;19;20046;-63
2023/11/19 04:16:31;;;;;;;0.05;0.05;;;;;;;12.84;77.81;99099.44;7369890;19;20006;-63
2023/11/19 04:18:56;;;;;;;0.10;0.10;;;;;;;13.14;77.84;99150.09;7336841;19;20014;-63
2023/11/19 04:21:23;;;;;;;0.10;0.10;;;;;;;13.03;77.30;99131.53;7354207;19;20002;-63
2023/11/19 04:23:49;;;;;;;0.10;0.10;;;;;;;13.15;77.74;99154.38;7370001;19;20011;-63
2023/11/19 04:26:15;;;;;;;0.10;0.10;;;;;;;13.11;77.63;99142.38;7367520;19;20478;-63
2023/11/19 04:28:41;;;;;;;0.10;0.10;;;;;;;13.24;77.38;99151.28;7368302;19;20021;-63
2023/11/19 04:31:06;;;;;;;0.10;0.10;;;;;;;13.26;77.42;99148.53;7362718;19;20034;-63
2023/11/19 04:33:31;;;;;;;0.10;0.10;;;;;;;13.18;77.00;99137.66;7376707;19;20010;-63
2023/11/19 04:35:57;;;;;;;0.10;0.10;;;;;;;13.26;77.83;99145.09;7366149;19;20047;-63
2023/11/19 04:38:22;;;;;;;0.10;0.10;;;;;;;13.27;77.53;99154.63;7370257;19;20508;-63
2023/11/19 04:40:47;;;;;;;0.10;0.10;;;;;;;13.27;77.53;99139.75;7359281;19;20018;-62
2023/11/19 04:43:13;;;;;;;0.10;0.10;;;;;;;13.31;76.69;99143.88;7372776;19;20100;-63
2023/11/19 04:45:39;;;;;;;0.10;0.10;;;;;;;13.28;77.39;99145.81;7368739;19;20050;-63
2023/11/19 04:48:05;;;;;;;0.10;0.10;;;;;;;13.33;76.89;99143.78;7368137;19;20011;-62
2023/11/19 04:50:30;;;;;;;0.00;0.00;;;;;;;13.29;76.92;99135.28;7368750;19;20354;-63
2023/11/19 04:52:56;;;;;;;0.08;0.08;;;;;;;13.34;76.67;99140.25;7364503;19;20358;-63
2023/11/19 04:55:22;;;;;;;0.10;0.10;;;;;;;13.33;76.52;99139.41;7371206;19;20002;-63
2023/11/19 04:57:47;;;;;;;0.10;0.10;;;;;;;13.32;76.77;99142.09;7370861;19;20034;-63
2023/11/19 05:00:13;;;;;;;0.10;0.10;;;;;;;13.20;76.61;99118.25;7369799;19;20010;-63
2023/11/19 05:02:39;;;;;;;0.10;0.10;;;;;;;13.36;76.69;99133.13;7374154;19;20011;-62
2023/11/19 05:05:05;;;;;;;0.10;0.10;;;;;;;13.35;76.98;99131.44;7366663;19;20100;-63
2023/11/19 05:07:30;;;;;;;0.10;0.10;;;;;;;13.21;76.68;99112.13;7363249;19;20239;-61
2023/11/19 05:09:56;;;;;;;0.10;0.10;;;;;;;13.33;77.08;99141.16;7365380;19;20861;-62
2023/11/19 05:12:22;;;;;;;0.10;0.10;;;;;;;13.18;76.20;99125.38;7370399;19;20017;-63
2023/11/19 05:14:50;;;;;;;0.10;0.10;;;;;;;13.31;76.14;99135.19;7363657;19;20509;-62
2023/11/19 05:17:17;;;;;;;;;;;;;;;13.34;76.98;99129.75;7370087;19;20839;-63
2023/11/19 05:19:43;;;;;;;0.10;0.10;;;;;;;13.29;76.61;99122.16;7368675;19;20381;-62
2023/11/19 05:22:08;;;;;;;0.10;0.10;;;;;;;13.26;76.56;99127.56;7368617;19;20374;-63
2023/11/19 05:24:34;;;;;;;0.10;0.10;;;;;;;13.24;76.54;99140.78;7343765;19;20018;-62
2023/11/19 05:26:59;;;;;;;0.08;0.08;;;;;;;13.23;76.42;99120.75;7360403;19;20003;-63
2023/11/19 05:29:25;;;;;;;0.10;0.10;;;;;;;13.03;76.41;99100.06;7365467;19;20015;-62
2023/11/19 05:31:50;;;;;;;0.10;0.10;;;;;;;13.22;76.84;99126.06;7360527;19;20026;-62
2023/11/19 05:34:15;;;;;;;0.10;0.10;;;;;;;13.21;76.49;99124.34;7367663;19;20010;-63
2023/11/19 05:36:41;;;;;;;0.10;0.10;;;;;;;13.06;76.13;99089.41;7366125;19;20506;-62
2023/11/19 05:39:06;;;;;;;0.10;0.10;;;;;;;13.21;75.90;99113.88;7368527;19;20094;-63
2023/11/19 05:41:31;;;;;;;0.10;0.10;;;;;;;13.21;76.22;99112.13;7361442;19;20347;-63
2023/11/19 05:43:57;;;;;;;0.00;0.00;;;;;;;13.21;76.26;99114.75;7364368;19;20014;-63
2023/11/19 05:46:22;;;;;;;0.10;0.10;;;;;;;13.20;76.72;99120.06;7362808;19;20099;-62
2023/11/19 05:48:48;;;;;;;0.05;0.05;;;;;;;13.19;76.23;99111.34;7363336;19;20002;-63
2023/11/19 05:51:15;;;;;;;0.10;0.10;;;;;;;13.20;75.98;99107.78;7370178;19;20010;-63
2023/11/19 05:53:40;;;;;;;0.10;0.10;;;;;;;13.22;76.37;99116.41;7364194;19;20024;-61
2023/11/19 05:56:09;;;;;;;0.10;0.10;;;;;;;13.12;76.28;99086.41;7365302;19;20014;-59
2023/11/19 05:58:35;;;;;;;0.10;0.10;;;;;;;13.17;76.02;99112.34;7355949;19;20074;-62
2023/11/19 06:01:02;;;;;;;0.10;0.10;;;;;;;13.11;76.48;99104.84;7368073;19;20439;-61
2023/11/19 06:03:28;;;;;;;0.10;0.10;;;;;;;13.04;76.59;99101.75;7369704;19;20010;-61
2023/11/19 06:05:54;;;;;;;0.10;0.10;;;;;;;13.00;76.53;99121.22;7363566;19;20014;-62
2023/11/19 06:08:20;;;;;;;0.10;0.10;;;;;;;12.95;76.63;99115.38;7366469;19;20014;-62
2023/11/19 06:10:46;;;;;;;0.10;0.10;;;;;;;12.91;76.91;99121.72;7362566;19;20755;-61
2023/11/19 06:13:15;;;;;;;0.10;0.10;;;;;;;12.87;77.09;99115.81;7366639;19;20017;-61
2023/11/19 06:15:44;;;;;;;0.10;0.10;;;;;;;12.84;77.01;99115.16;7364200;19;20010;-62
2023/11/19 06:18:11;;;;;;;0.10;0.10;;;;;;;12.79;77.37;99118.03;7365488;19;20021;-63
2023/11/19 06:20:37;;;;;;;0.10;0.10;;;;;;;12.68;77.30;99094.25;7366049;19;20014;-63
2023/11/19 06:23:02;;;;;;;0.10;0.10;;;;;;;12.69;77.72;99098.56;7365072;19;20034;-62
2023/11/19 06:25:28;;;;;;;0.10;0.10;;;;;;;12.72;77.88;99096.59;7367484;19;20011;-60
2023/11/19 06:27:54;;;;;;;0.10;0.10;;;;;;;12.57;78.07;99080.91;7364827;19;20006;-62
2023/11/19 06:30:20;;;;;;;0.10;0.10;;;;;;;12.72;77.66;99107.09;7362068;19;20010;-63
2023/11/19 06:32:46;;;;;;;0.10;0.10;;;;;;;12.73;77.79;99102.69;7360695;19;20564;-62
2023/11/19 06:35:11;;;;;;;0.10;0.10;;;;;;;12.71;77.81;99096.69;7367642;19;20344;-62
2023/11/19 06:37:40;;;;;;;0.10;0.10;;;;;;;12.71;78.12;99105.38;7365982;19;20007;-62
2023/11/19 06:40:06;;;;;;;0.10;0.10;;;;;;;12.70;77.81;99101.06;7366241;19;20478;-62
2023/11/19 06:42:32;;;;;;;0.10;0.10;;;;;;;12.61;77.92;99083.25;7367552;19;20019;-63
2023/11/19 06:44:57;;;;;;;0.10;0.10;;;;;;;12.71;78.00;99092.28;7363119;19;20015;-62
2023/11/19 06:47:27;;;;;;;0.10;0.10;;;;;;;12.71;78.18;99094.91;7355644;19;20462;-63
2023/11/19 06:49:53;;;;;;;0.10;0.10;;;;;;;12.71;78.21;99089.66;7364015;19;20014;-63
2023/11/19 06:52:19;;;;;;;0.10;0.10;;;;;;;12.74;78.35;99093.91;7359896;19;20470;-62
2023/11/19 06:54:45;;;;;;;0.10;0.10;;;;;;;12.66;78.04;99081.22;7364793;19;20010;-62
2023/11/19 06:57:11;;;;;;;0.10;0.10;;;;;;;12.67;78.34;99088.16;7360473;19;20458;-61
2023/11/19 06:59:37;;;;;;;0.10;0.10;;;;;;;12.75;78.13;99105.22;7359183;19;20809;-62
2023/11/19 07:02:02;;;;;;;0.10;0.10;;;;;;;12.73;78.45;99093.06;7362068;19;20010;-62
2023/11/19 07:04:28;;;;;;;0.10;0.10;;;;;;;12.71;78.67;99094.91;7362451;19;20458;-62
2023/11/19 07:06:53;;;;;;;0.10;0.10;;;;;;;12.73;78.44;99093.06;7355144;19;20014;-61
2023/11/19 07:09:18;;;;;;;0.10;0.10;;;;;;;12.65;78.48;99090.00;7365295;19;20013;-61
2023/11/19 07:11:46;;;;;;;0.10;0.10;;;;;;;12.69;78.47;99095.94;7363342;19;20536;-62
2023/11/19 07:14:11;;;;;;;0.10;0.10;;;;;;;12.68;78.73;99092.47;7365026;19;20014;-62
2023/11/19 07:16:38;;;;;;;0.10;0.10;;;;;;;12.63;78.71;99091.88;7361659;19;21712;-62
2023/11/19 07:19:05;;;;;;;0.10;0.10;;;;;;;12.62;78.58;99090.22;7363011;19;20013;-62
2023/11/19 07:21:30;;;;;;;0.10;0.10;;;;;;;12.55;78.97;99099.31;7357392;19;20011;-61
2023/11/19 07:23:56;;;;;;;0.00;0.00;;;;;;;12.60;78.94;99086.81;7368725;19;20473;-62
2023/11/19 07:26:22;;;;;;;0.10;0.10;;;;;;;12.58;78.86;99083.44;7369110;19;20010;-62
2023/11/19 07:28:48;;;;;;;0.10;0.10;;;;;;;12.57;79.28;99087.00;7364773;19;20013;-61
2023/11/19 07:31:13;;;;;;;0.10;0.10;;;;;;;12.49;79.14;99078.72;7363901;19;20011;-62
2023/11/19 07:33:42;;;;;;;0.00;0.00;;;;;;;12.54;79.32;99076.69;7362256;19;20007;-61
2023/11/19 07:36:10;;;;;;;0.10;0.10;;;;;;;12.53;79.60;99075.00;7358167;19;20010;-62
2023/11/19 07:38:36;;;;;;;0.10;0.10;;;;;;;12.52;79.37;99070.72;7355032;19;20085;-61
2023/11/19 07:41:02;;;;;;;0.00;0.00;;;;;;;12.56;79.53;99074.81;7354087;19;20454;-62
2023/11/19 07:43:27;;;;;;;0.10;0.10;;;;;;;12.55;79.25;99080.16;7362854;19;20021;-61
2023/11/19 07:45:53;;;;;;;0.10;0.10;;;;;;;12.55;79.33;99075.75;7357395;19;19998;-62
2023/11/19 07:48:23;;;;;;;0.10;0.10;;;;;;;12.55;79.35;99078.38;7363081;19;20017;-62
2023/11/19 07:50:50;;;;;;;0.10;0.10;;;;;;;12.54;79.60;99084.53;7363031;19;20003;-62
2023/11/19 07:53:16;;;;;;;0.10;0.10;;;;;;;12.43;79.15;99047.66;7363122;19;20335;-63
2023/11/19 07:55:41;;;;;;;0.10;0.10;;;;;;;12.41;79.52;99044.28;7360178;19;20534;-62
2023/11/19 07:58:06;;;;;;;0.10;0.10;;;;;;;12.52;79.67;99062.84;7357826;19;20082;-62
2023/11/19 08:00:32;;;;;;;0.10;0.10;;;;;;;12.58;79.85;99099.16;7369316;19;20038;-63
2023/11/19 08:02:57;;;;;;;0.10;0.10;;;;;;;12.57;79.50;99084.38;7358306;19;20009;-64
2023/11/19 08:05:24;;;;;;;0.10;0.10;;;;;;;12.58;79.95;99080.84;7360970;19;20007;-62
2023/11/19 08:07:50;;;;;;;0.10;0.10;;;;;;;12.60;79.66;99085.97;7361324;19;20018;-63
2023/11/19 08:10:15;;;;;;;0.10;0.10;;;;;;;12.65;80.16;99102.25;7360473;19;20739;-63
2023/11/19 08:12:41;;;;;;;0.10;0.10;;;;;;;12.55;79.87;99075.75;7363438;19;20437;-63
2023/11/19 08:15:07;;;;;;;0.10;0.10;;;;;;;12.69;79.84;99095.94;7354791;19;20005;-63
2023/11/19 08:17:32;;;;;;;0.10;0.10;;;;;;;12.56;79.77;99068.75;7355976;19;20803;-62
2023/11/19 08:20:00;;;;;;;0.10;0.10;;;;;;;12.72;79.96;99086.13;7362432;19;20337;-62
2023/11/19 08:22:25;;;;;;;0.10;0.10;;;;;;;12.72;80.04;99091.38;7363032;19;20078;-59
2023/11/19 08:24:51;;;;;;;0.10;0.10;;;;;;;12.77;80.09;99087.63;7362497;19;20085;-63
2023/11/19 08:27:16;;;;;;;0.10;0.10;;;;;;;12.77;79.83;99093.69;7358434;19;20024;-62
2023/11/19 08:29:42;;;;;;;0.15;0.15;;;;;;;12.76;79.72;99091.19;7361316;19;20011;-63
2023/11/19 08:32:07;;;;;;;0.10;0.10;;;;;;;12.76;80.20;99099.03;7368050;19;20015;-61
2023/11/19 08:34:32;;;;;;;0.10;0.10;;;;;;;12.75;79.93;99102.59;7359306;19;20471;-60
2023/11/19 08:36:59;;;;;;;0.10;0.10;;;;;;;12.76;79.92;99112.97;7348480;19;20006;-61
2023/11/19 08:39:24;;;;;;;0.10;0.10;;;;;;;12.79;79.95;99102.34;7361539;19;20013;-62
2023/11/19 08:41:50;;;;;;;0.10;0.10;;;;;;;12.78;80.22;99099.81;7371707;19;20015;-61
2023/11/19 08:44:16;;;;;;;0.08;0.08;;;;;;;12.73;80.30;99095.66;7366606;19;20038;-61
2023/11/19 08:46:51;;;;;;;0.10;0.10;;;;;;;12.82;80.12;99111.78;7366132;19;20019;-61
2023/11/19 08:49:17;;;;;;;0.10;0.10;;;;;;;12.81;80.26;99105.69;7362097;19;20003;-61
2023/11/19 08:51:42;;;;;;;0.05;0.05;;;;;;;12.84;80.54;99115.16;7365494;19;20038;-61
2023/11/19 08:54:08;;;;;;;0.10;0.10;;;;;;;12.80;80.47;99111.03;7366090;19;20021;-61
2023/11/19 08:56:35;;;;;;;0.10;0.10;;;;;;;12.86;80.73;99119.38;7369666;19;20006;-60
2023/11/19 08:59:00;;;;;;;0.10;0.10;;;;;;;12.88;80.51;99120.16;7371011;19;20013;-61
2023/11/19 09:01:26;;;;;;;0.10;0.10;;;;;;;12.88;80.49;99122.75;7369811;19;20018;-60
2023/11/19 09:03:52;;;;;;;0.10;0.10;;;;;;;12.90;80.65;99114.81;7367271;19;20006;-61
2023/11/19 09:06:17;;;;;;;0.10;0.10;;;;;;;12.93;80.27;99117.25;7361640;19;20113;-61
2023/11/19 09:08:43;;;;;;;0.10;0.10;;;;;;;12.95;80.68;99112.78;7368504;19;20002;-60
2023/11/19 09:11:08;;;;;;;0.10;0.10;;;;;;;12.94;80.33;99117.16;7359024;19;20010;-60
2023/11/19 09:13:34;;;;;;;0.10;0.10;;;;;;;12.94;80.25;99118.94;7362576;19;20007;-61
2023/11/19 09:16:03;;;;;;;0.10;0.10;;;;;;;12.99;80.62;99123.00;7361965;19;20748;-61
2023/11/19 09:18:34;;;;;;;0.10;0.10;;;;;;;12.99;80.46;99119.53;7365171;19;20380;-62
2023/11/19 09:21:00;;;;;;;0.10;0.10;;;;;;;13.00;80.82;99108.09;7360022;19;20019;-63
2023/11/19 09:23:27;;;;;;;0.10;0.10;;;;;;;13.01;80.89;99120.25;7368053;19;20018;-62
2023/11/19 09:25:53;;;;;;;0.10;0.10;;;;;;;13.04;80.78;99117.47;7366303;19;20019;-62
2023/11/19 09:28:18;;;;;;;0.10;0.10;;;;;;;13.04;80.30;99117.47;7362632;19;19998;-62
2023/11/19 09:30:43;;;;;;;0.10;0.10;;;;;;;12.99;80.44;99109.03;7368626;19;20027;-61
2023/11/19 09:33:09;;;;;;;0.10;0.10;;;;;;;13.09;80.41;99122.47;7356724;19;20007;-61
2023/11/19 09:35:35;;;;;;;0.10;0.10;;;;;;;13.11;80.37;99125.81;7368370;19;20035;-61
2023/11/19 09:38:00;;;;;;;0.10;0.10;;;;;;;13.12;80.43;99130.13;7356500;19;20014;-61
2023/11/19 09:40:26;;;;;;;0.10;0.10;;;;;;;13.14;80.68;99117.78;7362675;19;20617;-60
2023/11/19 09:42:51;;;;;;;0.10;0.10;;;;;;;13.18;80.59;99133.25;7358702;19;20006;-62
2023/11/19 09:45:20;;;;;;;0.10;0.10;;;;;;;13.21;80.73;99156.69;7359075;19;20011;-61
2023/11/19 09:47:47;;;;;;;0.10;0.10;;;;;;;13.19;80.77;99127.06;7350677;19;20581;-60
2023/11/19 09:50:18;;;;;;;0.10;0.10;;;;;;;13.29;80.55;99142.31;7361122;19;20045;-62
2023/11/19 09:52:44;;;;;;;0.10;0.10;;;;;;;13.29;80.69;99158.88;7363482;19;20014;-61
2023/11/19 09:55:09;;;;;;;0.10;0.10;;;;;;;13.32;81.16;99157.81;7354578;19;20043;-61
2023/11/19 09:57:37;;;;;;;0.10;0.10;;;;;;;13.34;81.23;99150.75;7360554;19;20070;-62
2023/11/19 10:00:04;;;;;;;0.10;0.10;;;;;;;13.39;81.27;99164.41;7362868;19;20338;-62
2023/11/19 10:02:32;;;;;;;0.10;0.10;;;;;;;13.44;81.26;99152.72;7363182;19;20380;-61
2023/11/19 10:05:02;;;;;;;0.10;0.10;;;;;;;13.46;81.12;99170.97;7363445;19;20018;-64
2023/11/19 10:07:28;;;;;;;0.05;0.05;;;;;;;13.48;81.35;99163.84;7361493;19;20424;-62
2023/11/19 10:09:53;;;;;;;0.10;0.10;;;;;;;13.53;81.49;99181.94;7362969;19;20074;-62
2023/11/19 10:12:19;;;;;;;0.10;0.10;;;;;;;13.57;81.60;99184.28;7361630;19;20099;-62
2023/11/19 10:14:45;;;;;;;0.10;0.10;;;;;;;13.61;81.26;99185.81;7359759;19;20002;-62
2023/11/19 10:17:11;;;;;;;0.10;0.10;;;;;;;13.64;81.07;99190.03;7365502;19;20033;-61
2023/11/19 10:19:36;;;;;;;0.10;0.10;;;;;;;13.66;81.00;99190.78;7361219;19;19987;-61
2023/11/19 10:22:05;;;;;;;0.10;0.10;;;;;;;13.69;81.54;99196.69;7362475;19;20010;-61
2023/11/19 10:24:35;;;;;;;0.10;0.10;;;;;;;13.69;81.40;99194.06;7359537;19;20016;-62
2023/11/19 10:27:03;;;;;;;0.10;0.10;;;;;;;13.58;81.16;99175.47;7356687;19;20006;-60
2023/11/19 10:29:29;;;;;;;0.10;0.10;;;;;;;13.77;81.75;99215.44;7358776;19;20017;-62
2023/11/19 10:31:59;;;;;;;0.10;0.10;;;;;;;13.83;81.73;99195.00;7361696;19;20080;-60
2023/11/19 10:34:26;;;;;;;0.10;0.10;;;;;;;13.83;81.22;99218.63;7363504;19;20014;-61
2023/11/19 10:36:51;;;;;;;0.10;0.10;;;;;;;13.77;81.16;99220.69;7362721;19;20007;-62
2023/11/19 10:39:17;;;;;;;0.10;0.10;;;;;;;13.81;81.37;99233.63;7361923;19;20015;-61
2023/11/19 10:41:44;;;;;;;0.10;0.10;;;;;;;13.87;81.58;99236.72;7355472;19;20070;-62
2023/11/19 10:44:09;;;;;;;0.10;0.10;;;;;;;13.74;81.62;99218.25;7351603;19;20118;-61
2023/11/19 10:46:43;;;;;;;0.10;0.10;;;;;;;13.93;81.16;99246.00;7358863;19;20376;-61
2023/11/19 10:49:12;;;;;;;0.10;0.10;;;;;;;13.92;81.49;99241.69;7355027;19;20027;-61
2023/11/19 10:51:44;;;;;;;0.10;0.10;;;;;;;13.98;81.19;99283.31;7353767;19;20006;-62
2023/11/19 10:54:13;;;;;;;0.10;0.10;;;;;;;13.96;81.14;99253.72;7342975;19;20014;-62
2023/11/19 10:56:42;;;;;;;0.10;0.10;;;;;;;14.00;81.64;99268.34;7346803;19;20010;-62
2023/11/19 10:59:11;;;;;;;0.10;0.10;;;;;;;13.99;81.60;99266.66;7345216;19;20824;-62
2023/11/19 11:01:44;;;;;;;0.10;0.10;;;;;;;14.02;81.52;99274.34;7347937;19;20011;-62
2023/11/19 11:04:15;;;;;;;0.10;0.10;;;;;;;14.02;81.34;99274.34;7353930;19;21707;-62
2023/11/19 11:06:41;;;;;;;0.10;0.10;;;;;;;14.01;81.41;99278.75;7358232;19;20006;-62
2023/11/19 11:09:11;;;;;;;0.10;0.10;;;;;;;13.94;81.64;99276.59;7368452;19;20529;-61
2023/11/19 11:11:39;;;;;;;0.10;0.10;;;;;;;14.05;81.98;99279.41;7355285;19;20504;-62
2023/11/19 11:14:05;;;;;;;0.10;0.10;;;;;;;14.09;82.12;99288.81;7364442;19;20014;-62
2023/11/19 11:16:31;;;;;;;0.10;0.10;;;;;;;14.15;82.03;99295.47;7360074;19;20025;-62
2023/11/19 11:18:58;;;;;;;0.20;0.20;;;;;;;14.14;81.95;99288.50;7362546;19;20054;-62
2023/11/19 11:21:26;;;;;;;0.10;0.10;;;;;;;14.23;82.32;99299.28;7359940;19;20762;-61
2023/11/19 11:24:13;;;;;;;0.10;0.10;;;;;;;14.33;82.04;99304.00;7359104;19;20018;-61
2023/11/19 11:27:03;;;;;;;0.10;0.10;;;;;;;14.36;81.90;99303.81;7361081;19;20019;-62
2023/11/19 11:29:37;;;;;;;0.10;0.10;;;;;;;14.37;82.36;99313.38;7351358;19;20006;-62
2023/11/19 11:32:17;;;;;;;0.10;0.10;;;;;;;14.40;82.33;99321.94;7353815;19;20010;-62